Overview Statistics Trail Chart Weather Telemetry Raw packets
 

This is the latest recevied weather packets stored in our database for station/object Ostrach. If no packets are shown the sender has not sent any weather packets the latest 10 day(s).

<< 6 7 8 9 10 11 12 >>
Time Temp. Humidity Pressure Rain* Wind** Luminosity Snow
1788357730 26.11° C 46% 1017.6 hPa 0 mm - - -
1788355930 25.56° C 46% 1017.6 hPa 0 mm - - -
1788354130 25.56° C 47% 1017.9 hPa 0 mm - - -
1788352330 25.56° C 46% 1018 hPa 0 mm - - -
1788350530 25° C 51% 1018.3 hPa 0 mm - - -
1788348731 25° C 48% 1018.5 hPa 0 mm - - -
1788346929 25° C 52% 1018.8 hPa 0 mm - - -
1788345130 24.44° C 54% 1019 hPa 0 mm - - -
1788343330 23.33° C 56% 1019.2 hPa 0 mm - - -
1788341530 21.67° C 62% 1019.2 hPa 0 mm - - -
1788339730 21.67° C 64% 1019.3 hPa 0 mm - - -
1788337930 19.44° C 70% 1019 hPa 0 mm - - -
1788336131 17.22° C 75% 1019 hPa 0 mm - - -
1788334330 15.56° C 81% 1019 hPa 0 mm - - -
1788332530 12.78° C 89% 1019 hPa 0 mm - - -
1788330729 11.67° C 94% 1019.2 hPa 0 mm - - -
1788328929 10.56° C 94% 1019.1 hPa 0 mm - - -
1788327130 8.89° C 93% 1018.8 hPa 0 mm - - -
1788325331 8.33° C 92% 1018.7 hPa 0 mm - - -
1788323529 8.89° C 92% 1018.8 hPa 0 mm - - -
1788321730 8.89° C 91% 1018.6 hPa 0 mm - - -
1788319930 9.44° C 91% 1018.7 hPa 0 mm - - -
1788318129 9.44° C 91% 1018.7 hPa 0 mm - - -
1788316330 9.44° C 90% 1018.8 hPa 0 mm - - -
1788314529 10° C 90% 1018.8 hPa 0 mm - - -

* Rain since midnight (hover to see other rain measurements)
** Current wind speed in m/s (hover to see current wind gust speed)